Time;durP1;ratioP1;P1;durP2;ratioP2;P2;SDS_P1;SDS_P2;PMS_P1;PMS_P2;Temp;Humidity;BMP_temperature;BMP_pressure;BME280_temperature;BME280_humidity;BME280_pressure;Samples;Min_cycle;Max_cycle;Signal;HPM_P1;HPM_P2
2021/03/31 00:01:13;;;;;;;33.80;22.67;;;10.90;1.00;;;;;;5033695;28;20556;-78
2021/03/31 00:03:39;;;;;;;27.70;22.40;;;10.80;1.00;;;;;;5030333;28;20529;-81
2021/03/31 00:06:06;;;;;;;28.90;23.60;;;10.80;1.00;;;;;;5032768;28;21056;-77
2021/03/31 00:08:32;;;;;;;27.50;22.47;;;10.80;1.00;;;;;;5056810;28;20460;-80
2021/03/31 00:11:00;;;;;;;27.43;24.50;;;10.80;1.00;;;;;;5040430;28;20477;-77
2021/03/31 00:13:28;;;;;;;28.80;23.30;;;10.70;1.00;;;;;;5025550;28;20501;-82
2021/03/31 00:15:55;;;;;;;25.27;22.57;;;10.70;1.00;;;;;;5031697;28;20462;-82
2021/03/31 00:18:22;;;;;;;27.53;23.90;;;10.60;1.00;;;;;;5037147;28;20544;-80
2021/03/31 00:20:49;;;;;;;27.20;24.30;;;10.60;1.00;;;;;;5037488;28;20468;-81
2021/03/31 00:23:18;;;;;;;27.80;23.37;;;10.50;1.00;;;;;;5030569;28;20449;-80
2021/03/31 00:25:44;;;;;;;26.60;23.23;;;10.50;1.00;;;;;;5040471;28;21758;-80
2021/03/31 00:28:11;;;;;;;31.77;24.43;;;10.40;1.00;;;;;;5038150;28;20487;-78
2021/03/31 00:30:39;;;;;;;29.67;24.60;;;10.40;1.00;;;;;;5041872;28;20474;-81
2021/03/31 00:33:05;;;;;;;27.83;24.60;;;10.40;1.00;;;;;;5036961;28;20453;-81
2021/03/31 00:35:32;;;;;;;27.70;24.80;;;10.30;1.00;;;;;;5050032;28;20456;-80
2021/03/31 00:38:08;;;;;;;27.43;24.53;;;10.30;1.00;;;;;;5048981;28;20500;-81
2021/03/31 00:40:37;;;;;;;28.30;23.63;;;10.20;1.00;;;;;;5036475;28;20441;-82
2021/03/31 00:43:04;;;;;;;30.43;23.80;;;10.20;1.00;;;;;;5035571;28;20463;-81
2021/03/31 00:45:31;;;;;;;32.53;24.17;;;10.20;1.00;;;;;;5034278;28;20431;-79
2021/03/31 00:47:58;;;;;;;30.23;24.43;;;10.10;1.00;;;;;;5030247;28;20451;-79
2021/03/31 00:50:25;;;;;;;29.10;24.13;;;10.10;1.00;;;;;;5059157;28;20612;-78
2021/03/31 00:52:54;;;;;;;25.87;22.10;;;10.20;1.00;;;;;;5034875;28;20436;-79
2021/03/31 00:55:22;;;;;;;27.30;23.43;;;10.10;1.00;;;;;;5045116;28;20433;-78
2021/03/31 00:57:49;;;;;;;29.07;23.63;;;10.10;1.00;;;;;;5041355;28;21266;-82
2021/03/31 01:00:16;;;;;;;26.92;24.02;;;10.00;1.00;;;;;;5035735;28;20476;-82
2021/03/31 01:02:42;;;;;;;25.50;22.17;;;10.00;1.00;;;;;;5053369;28;20228;-78
2021/03/31 01:05:12;;;;;;;26.90;24.00;;;10.00;1.00;;;;;;5068196;28;20470;-78
2021/03/31 01:07:39;;;;;;;25.10;22.50;;;9.90;1.00;;;;;;5039672;28;20438;-79
2021/03/31 01:10:07;;;;;;;25.40;22.10;;;9.90;1.00;;;;;;5031644;28;20222;-82
2021/03/31 01:12:57;;;;;;;30.33;22.92;;;9.90;1.00;;;;;;5035602;28;20502;-80
2021/03/31 01:15:29;;;;;;;28.00;23.23;;;9.80;1.00;;;;;;5033265;28;20225;-79
2021/03/31 01:18:02;;;;;;;27.42;21.00;;;9.80;1.00;;;;;;5049698;28;20546;-81
2021/03/31 01:20:48;;;;;;;23.67;20.83;;;9.70;1.00;;;;;;5054480;28;20246;-78
2021/03/31 01:23:57;;;;;;;29.08;23.30;;;9.70;1.00;;;;;;5041391;28;21134;-81
2021/03/31 01:26:28;;;;;;;25.30;21.70;;;9.60;1.00;;;;;;5080061;27;20227;-79
2021/03/31 01:29:24;;;;;;;33.83;22.88;;;9.60;1.00;;;;;;5066647;28;20456;-87
2021/03/31 01:32:02;;;;;;;21.98;19.65;;;9.60;1.00;;;;;;5083784;27;20226;-90
2021/03/31 01:34:36;;;;;;;22.65;20.20;;;9.50;1.00;;;;;;5066111;28;20274;-87
2021/03/31 01:37:10;;;;;;;23.45;20.42;;;9.50;1.00;;;;;;5069575;27;20223;-88
2021/03/31 01:39:39;;;;;;;25.27;21.27;;;9.50;1.00;;;;;;5070936;27;20208;-88
2021/03/31 01:42:07;;;;;;;28.90;22.73;;;9.60;1.00;;;;;;5071972;28;20212;-88
2021/03/31 01:44:34;;;;;;;26.40;20.27;;;9.50;1.00;;;;;;5072935;28;20407;-88
2021/03/31 01:47:01;;;;;;;27.85;21.23;;;9.40;1.00;;;;;;5074007;27;20218;-87
2021/03/31 01:49:28;;;;;;;25.38;20.95;;;9.40;1.00;;;;;;5075739;27;20223;-88
2021/03/31 01:52:00;;;;;;;24.25;21.67;;;9.30;1.00;;;;;;5066974;28;20291;-88
2021/03/31 01:54:28;;;;;;;25.20;20.53;;;9.40;1.00;;;;;;5078608;28;20247;-87
2021/03/31 01:56:56;;;;;;;24.63;20.17;;;9.30;1.00;;;;;;5074684;27;20499;-86
2021/03/31 01:59:24;;;;;;;28.70;21.80;;;9.30;1.00;;;;;;5092481;27;20225;-88
2021/03/31 02:01:52;;;;;;;26.80;20.98;;;9.20;1.00;;;;;;5088083;27;20223;-87
2021/03/31 02:04:20;;;;;;;25.88;20.42;;;9.10;1.00;;;;;;5083782;27;20229;-88
2021/03/31 02:06:47;;;;;;;21.33;18.90;;;9.20;1.00;;;;;;5089526;27;20377;-87
2021/03/31 02:09:16;;;;;;;23.92;21.10;;;9.10;1.00;;;;;;5080525;28;20226;-88
2021/03/31 02:11:44;;;;;;;23.90;20.50;;;9.10;1.00;;;;;;5062893;28;21131;-87
2021/03/31 02:14:12;;;;;;;26.42;19.92;;;9.00;1.00;;;;;;5063808;28;20224;-87
2021/03/31 02:16:41;;;;;;;26.35;21.25;;;9.00;1.00;;;;;;5053820;28;20231;-84
2021/03/31 02:19:11;;;;;;;26.10;21.08;;;9.00;1.00;;;;;;5065430;28;20227;-84
2021/03/31 02:21:38;;;;;;;30.60;22.17;;;9.00;1.00;;;;;;5070478;28;20225;-85
2021/03/31 02:24:05;;;;;;;25.13;21.42;;;9.10;1.00;;;;;;5053051;28;20671;-84
2021/03/31 02:26:33;;;;;;;25.48;21.02;;;9.10;1.00;;;;;;5059089;28;20223;-86
2021/03/31 02:29:00;;;;;;;27.42;23.40;;;9.00;1.00;;;;;;5045190;28;20231;-83
2021/03/31 02:31:27;;;;;;;23.42;21.02;;;9.00;1.00;;;;;;5063737;28;20250;-87
2021/03/31 02:33:55;;;;;;;21.98;19.77;;;9.00;1.00;;;;;;5044575;28;20214;-84
2021/03/31 02:36:22;;;;;;;26.13;21.75;;;8.90;1.00;;;;;;5045966;28;20288;-85
2021/03/31 02:38:50;;;;;;;26.75;22.38;;;8.80;1.00;;;;;;5059882;28;20273;-81
2021/03/31 02:41:18;;;;;;;32.60;25.17;;;8.80;1.00;;;;;;5032239;28;20231;-82
2021/03/31 02:43:48;;;;;;;25.83;23.13;;;8.80;1.00;;;;;;5039671;28;20267;-85
2021/03/31 02:46:19;;;;;;;25.17;22.52;;;8.70;1.00;;;;;;5046635;28;20741;-84
2021/03/31 02:48:48;;;;;;;26.55;23.60;;;8.70;1.00;;;;;;5048693;28;20237;-83
2021/03/31 02:51:15;;;;;;;27.42;23.23;;;8.60;1.00;;;;;;5048491;28;20233;-84
2021/03/31 02:53:42;;;;;;;30.17;24.70;;;8.70;1.00;;;;;;5051391;28;20274;-84
2021/03/31 02:56:10;;;;;;;27.13;22.50;;;8.60;1.00;;;;;;5041510;28;20274;-84
2021/03/31 02:58:38;;;;;;;29.45;25.60;;;8.70;1.00;;;;;;5068037;28;20224;-85
2021/03/31 03:01:06;;;;;;;27.83;24.65;;;8.70;1.00;;;;;;5066150;28;20227;-85
2021/03/31 03:03:33;;;;;;;28.95;25.85;;;8.80;1.00;;;;;;5051915;28;20666;-84
2021/03/31 03:06:00;;;;;;;29.40;23.77;;;8.80;1.00;;;;;;5053156;28;20218;-79
2021/03/31 03:08:28;;;;;;;29.63;24.90;;;8.70;1.00;;;;;;5051209;28;20306;-84
2021/03/31 03:10:57;;;;;;;28.40;24.00;;;8.60;1.00;;;;;;5057142;28;20302;-79
2021/03/31 03:13:24;;;;;;;28.48;25.40;;;8.60;1.00;;;;;;5046005;28;20226;-79
2021/03/31 03:15:51;;;;;;;29.05;25.88;;;8.50;1.00;;;;;;5046874;28;20833;-82
2021/03/31 03:18:18;;;;;;;29.35;26.38;;;8.50;1.00;;;;;;5077742;28;20255;-80
2021/03/31 03:20:45;;;;;;;33.90;27.70;;;8.40;1.00;;;;;;5048499;28;20239;-77
2021/03/31 03:23:12;;;;;;;32.20;27.88;;;8.40;1.00;;;;;;5056896;28;20318;-79
2021/03/31 03:25:39;;;;;;;31.67;27.60;;;8.40;1.00;;;;;;5035013;28;20246;-82
2021/03/31 03:28:05;;;;;;;30.10;26.90;;;8.40;1.00;;;;;;5043040;28;20235;-80
2021/03/31 03:30:33;;;;;;;33.78;28.27;;;8.30;1.00;;;;;;5042529;28;20226;-78
2021/03/31 03:33:00;;;;;;;32.17;27.52;;;8.30;1.00;;;;;;5048454;28;20226;-78
2021/03/31 03:35:28;;;;;;;34.70;30.55;;;8.30;1.00;;;;;;5050746;28;20282;-80
2021/03/31 03:37:55;;;;;;;35.03;28.15;;;8.30;1.00;;;;;;5049815;28;20218;-80
2021/03/31 03:40:24;;;;;;;34.22;30.80;;;8.30;1.00;;;;;;5051628;28;20949;-80
2021/03/31 03:42:51;;;;;;;33.42;29.83;;;8.20;1.00;;;;;;5046427;28;20333;-79
2021/03/31 03:45:19;;;;;;;33.67;30.15;;;8.20;1.00;;;;;;5057635;28;20229;-78
2021/03/31 03:47:45;;;;;;;34.95;30.05;;;8.20;1.00;;;;;;5052462;28;20291;-79
2021/03/31 03:50:13;;;;;;;39.00;31.58;;;8.10;1.00;;;;;;5040027;28;20531;-79
2021/03/31 03:52:43;;;;;;;35.60;31.00;;;8.10;1.00;;;;;;5057329;28;20280;-82
2021/03/31 03:55:11;;;;;;;35.78;29.73;;;8.10;1.00;;;;;;5045533;28;20241;-76
2021/03/31 03:57:38;;;;;;;34.38;30.98;;;8.00;1.00;;;;;;5042579;28;20221;-79
2021/03/31 04:00:12;;;;;;;35.53;31.77;;;7.90;1.00;;;;;;5041541;28;20230;-78
2021/03/31 04:02:39;;;;;;;36.42;31.88;;;7.90;1.00;;;;;;5044257;28;20308;-81
2021/03/31 04:05:06;;;;;;;33.95;30.45;;;7.90;1.00;;;;;;5053511;28;21152;-79
2021/03/31 04:07:33;;;;;;;42.75;34.63;;;7.90;1.00;;;;;;5046832;28;20267;-78
2021/03/31 04:10:01;;;;;;;34.95;31.15;;;7.90;1.00;;;;;;5050871;28;20269;-81
2021/03/31 04:12:28;;;;;;;38.70;32.65;;;7.90;1.00;;;;;;5046292;28;20775;-82
2021/03/31 04:14:55;;;;;;;33.85;30.25;;;7.90;1.00;;;;;;5053209;28;20250;-77
2021/03/31 04:17:23;;;;;;;34.50;29.48;;;7.90;1.00;;;;;;5040220;28;20241;-81
2021/03/31 04:19:50;;;;;;;31.38;27.98;;;7.90;1.00;;;;;;5042490;28;20309;-79
2021/03/31 04:22:17;;;;;;;33.85;29.50;;;7.80;1.00;;;;;;5036600;28;20247;-81
2021/03/31 04:24:43;;;;;;;38.28;27.65;;;7.90;1.00;;;;;;5043979;28;20222;-79
2021/03/31 04:27:12;;;;;;;35.70;30.45;;;7.80;1.00;;;;;;5053241;28;20210;-81
2021/03/31 04:29:40;;;;;;;35.40;29.52;;;7.80;1.00;;;;;;5039381;28;20681;-81
2021/03/31 04:32:08;;;;;;;32.72;29.20;;;7.80;1.00;;;;;;5039966;28;20225;-80
2021/03/31 04:34:34;;;;;;;39.30;32.13;;;7.70;1.00;;;;;;5035889;28;21117;-81
2021/03/31 04:37:01;;;;;;;35.33;31.75;;;7.70;1.00;;;;;;5044222;28;21200;-82
2021/03/31 04:39:33;;;;;;;34.60;30.98;;;7.80;1.00;;;;;;5056113;27;20221;-80
2021/03/31 04:41:59;;;;;;;31.92;28.52;;;7.70;1.00;;;;;;5060789;28;20281;-78
2021/03/31 04:44:26;;;;;;;31.70;28.35;;;7.80;1.00;;;;;;5047848;28;20937;-80
2021/03/31 04:46:53;;;;;;;35.83;30.60;;;7.80;1.00;;;;;;5043913;28;20226;-81
2021/03/31 04:49:19;;;;;;;35.22;28.50;;;7.80;1.00;;;;;;5043633;28;20225;-79
2021/03/31 04:51:45;;;;;;;31.75;28.30;;;7.90;1.00;;;;;;5042134;28;20309;-80
2021/03/31 04:54:12;;;;;;;35.40;28.67;;;7.90;1.00;;;;;;5050226;28;20229;-80
2021/03/31 04:56:38;;;;;;;30.85;27.52;;;7.80;1.00;;;;;;5045260;28;20241;-79
2021/03/31 04:59:04;;;;;;;33.35;29.95;;;7.90;1.00;;;;;;5042581;28;20238;-80
2021/03/31 05:01:32;;;;;;;36.85;28.83;;;7.80;1.00;;;;;;5038262;28;20265;-80
2021/03/31 05:03:58;;;;;;;37.08;29.70;;;7.90;1.00;;;;;;5044618;28;20275;-79
2021/03/31 05:06:30;;;;;;;33.25;29.63;;;7.90;1.00;;;;;;5055865;28;20302;-76
2021/03/31 05:08:56;;;;;;;33.72;30.15;;;7.90;1.00;;;;;;5044504;28;20241;-78
2021/03/31 05:11:22;;;;;;;35.78;31.45;;;7.90;1.00;;;;;;5053456;28;20230;-81
2021/03/31 05:13:49;;;;;;;34.47;29.83;;;7.90;1.00;;;;;;5044194;28;20242;-79
2021/03/31 05:16:15;;;;;;;38.55;32.33;;;8.00;1.00;;;;;;5051132;28;20257;-79
2021/03/31 05:18:42;;;;;;;37.03;32.50;;;8.00;1.00;;;;;;5068104;28;20229;-79
2021/03/31 05:21:08;;;;;;;35.83;30.85;;;8.00;1.00;;;;;;5042132;28;20222;-80
2021/03/31 05:23:35;;;;;;;35.15;31.45;;;8.00;1.00;;;;;;5043429;28;20217;-78
2021/03/31 05:26:02;;;;;;;34.65;30.92;;;8.00;1.00;;;;;;5060943;28;20226;-83
2021/03/31 05:28:28;;;;;;;40.22;30.27;;;8.00;1.00;;;;;;5042171;28;20233;-80
2021/03/31 05:30:55;;;;;;;39.17;32.00;;;8.10;1.00;;;;;;5041902;28;20990;-80
2021/03/31 05:33:21;;;;;;;36.90;31.15;;;8.10;1.00;;;;;;5038966;28;20222;-77
2021/03/31 05:35:48;;;;;;;34.83;30.50;;;8.20;1.00;;;;;;5044763;28;20249;-82
2021/03/31 05:38:15;;;;;;;38.22;31.85;;;8.20;1.00;;;;;;5045103;28;20325;-78
2021/03/31 05:40:42;;;;;;;38.97;30.98;;;8.30;1.00;;;;;;5056791;28;20236;-82
2021/03/31 05:43:08;;;;;;;36.35;29.48;;;8.30;1.00;;;;;;5049618;28;20268;-82
2021/03/31 05:45:35;;;;;;;36.03;30.83;;;8.40;1.00;;;;;;5057295;28;20273;-81
2021/03/31 05:48:03;;;;;;;32.28;28.27;;;8.40;1.00;;;;;;5064836;28;20229;-81
2021/03/31 05:50:31;;;;;;;43.60;29.23;;;8.50;1.00;;;;;;5055540;28;20226;-78
2021/03/31 05:52:58;;;;;;;35.30;26.65;;;8.50;1.00;;;;;;5056910;28;20236;-80
2021/03/31 05:55:24;;;;;;;49.05;30.67;;;8.60;1.00;;;;;;5053581;28;20257;-78
2021/03/31 05:57:51;;;;;;;32.28;25.88;;;8.70;1.00;;;;;;5054605;28;20233;-78
2021/03/31 06:00:20;;;;;;;35.08;24.08;;;8.70;1.00;;;;;;5045088;28;20730;-80
2021/03/31 06:02:47;;;;;;;27.50;23.42;;;8.80;1.00;;;;;;5049305;28;20258;-79
2021/03/31 06:05:15;;;;;;;31.05;24.67;;;9.00;1.00;;;;;;5055163;28;20337;-78
2021/03/31 06:07:42;;;;;;;29.45;23.50;;;9.30;1.00;;;;;;5065358;28;20222;-79
2021/03/31 06:10:15;;;;;;;27.33;22.15;;;9.40;1.00;;;;;;5065387;28;20229;-79
2021/03/31 06:12:43;;;;;;;27.73;24.67;;;9.40;1.00;;;;;;5053951;28;20223;-78
2021/03/31 06:15:22;;;;;;;29.80;22.98;;;9.40;1.00;;;;;;5051117;28;20230;-78
2021/03/31 06:17:51;;;;;;;27.30;24.33;;;9.40;1.00;;;;;;5055000;28;20239;-78
2021/03/31 06:20:38;;;;;;;25.42;22.70;;;9.50;1.00;;;;;;5061905;28;20249;-78
2021/03/31 06:23:17;;;;;;;30.10;24.65;;;9.60;1.00;;;;;;5069153;28;20261;-79
2021/03/31 06:25:48;;;;;;;28.17;23.67;;;9.70;1.00;;;;;;5054021;28;20214;-77
2021/03/31 06:28:27;;;;;;;25.50;22.85;;;9.80;1.00;;;;;;5043053;28;20222;-78
2021/03/31 06:31:09;;;;;;;27.75;24.65;;;10.00;1.00;;;;;;5037977;28;20222;-78
2021/03/31 06:33:36;;;;;;;27.87;22.90;;;10.10;1.00;;;;;;5039171;28;20218;-79
2021/03/31 06:36:02;;;;;;;23.77;21.02;;;10.20;1.00;;;;;;5052301;28;20503;-79
2021/03/31 06:38:30;;;;;;;28.50;21.40;;;10.30;1.00;;;;;;5067232;28;20236;-86
2021/03/31 06:41:00;;;;;;;24.30;21.80;;;10.50;1.00;;;;;;5073259;27;21162;-84
2021/03/31 06:43:29;;;;;;;23.88;21.20;;;10.60;1.00;;;;;;5050887;28;20216;-84
2021/03/31 06:46:11;;;;;;;30.63;21.80;;;10.70;1.00;;;;;;5052345;28;20732;-84
2021/03/31 06:48:43;;;;;;;31.27;22.07;;;10.80;1.00;;;;;;5043510;28;20974;-85
2021/03/31 06:51:24;;;;;;;23.95;20.95;;;11.00;1.00;;;;;;5056395;28;20528;-83
2021/03/31 06:53:50;;;;;;;33.90;21.43;;;11.10;1.00;;;;;;5053546;28;21034;-86
2021/03/31 06:56:47;;;;;;;23.20;20.17;;;11.20;1.00;;;;;;5061782;28;20628;-83
2021/03/31 06:59:14;;;;;;;25.90;20.53;;;11.30;1.00;;;;;;5054295;28;20448;-85
2021/03/31 07:01:41;;;;;;;31.30;20.90;;;11.50;1.00;;;;;;5060005;28;20440;-85
2021/03/31 07:04:08;;;;;;;30.40;21.60;;;11.70;1.00;;;;;;5057048;28;20434;-85
2021/03/31 07:06:36;;;;;;;24.27;21.70;;;11.80;1.00;;;;;;5079928;28;20422;-88
2021/03/31 07:09:03;;;;;;;23.60;20.97;;;12.00;1.00;;;;;;5069162;28;20500;-86
2021/03/31 07:11:39;;;;;;;52.23;25.30;;;12.20;1.00;;;;;;5067165;28;20445;-86
2021/03/31 07:14:17;;;;;;;36.97;22.60;;;12.30;1.00;;;;;;5063249;28;20558;-85
2021/03/31 07:16:45;;;;;;;30.03;21.73;;;12.50;1.00;;;;;;5065959;28;21247;-86
2021/03/31 07:19:12;;;;;;;27.27;20.20;;;12.50;1.00;;;;;;5058056;28;20444;-85
2021/03/31 07:21:39;;;;;;;30.00;20.73;;;12.70;1.00;;;;;;5055090;28;20500;-85
2021/03/31 07:24:08;;;;;;;24.97;20.70;;;12.90;1.00;;;;;;5048295;28;20468;-85
2021/03/31 07:26:34;;;;;;;25.77;20.03;;;13.00;1.00;;;;;;5068230;28;20453;-84
2021/03/31 07:29:01;;;;;;;24.67;20.03;;;13.10;1.00;;;;;;5057598;28;20405;-84
2021/03/31 07:31:29;;;;;;;23.30;20.60;;;13.30;1.00;;;;;;5068314;27;20409;-87
2021/03/31 07:34:10;;;;;;;24.47;20.60;;;13.50;1.00;;;;;;5068644;28;20536;-86
2021/03/31 07:36:38;;;;;;;29.30;20.27;;;13.70;1.00;;;;;;5058144;28;20556;-81
2021/03/31 07:39:06;;;;;;;27.10;21.50;;;13.90;1.00;;;;;;5059925;28;20484;-83
2021/03/31 07:41:37;;;;;;;24.93;20.77;;;14.00;1.00;;;;;;5065689;28;20530;-81
2021/03/31 07:44:06;;;;;;;23.97;20.60;;;14.10;1.00;;;;;;5069448;28;20448;-82
2021/03/31 07:46:34;;;;;;;25.77;19.50;;;14.30;1.00;;;;;;5076608;28;20490;-84
2021/03/31 07:49:02;;;;;;;22.67;19.30;;;14.60;1.00;;;;;;5071605;28;20427;-82
2021/03/31 07:51:31;;;;;;;21.67;19.43;;;14.80;1.00;;;;;;5075443;28;20423;-82
2021/03/31 07:53:59;;;;;;;24.77;19.30;;;14.90;1.00;;;;;;5071973;28;20414;-82
2021/03/31 07:56:34;;;;;;;26.50;20.40;;;15.00;1.00;;;;;;5082334;27;20397;-82
2021/03/31 07:59:12;;;;;;;31.70;21.80;;;15.20;1.00;;;;;;5068987;27;20456;-80
2021/03/31 08:01:41;;;;;;;30.83;22.20;;;15.40;1.00;;;;;;5051803;28;20445;-81
2021/03/31 08:04:09;;;;;;;32.17;20.93;;;15.60;1.00;;;;;;5044903;28;20409;-82
2021/03/31 08:06:37;;;;;;;24.80;20.90;;;15.80;1.00;;;;;;5043161;28;20461;-81
2021/03/31 08:09:06;;;;;;;25.60;19.60;;;16.00;1.00;;;;;;5049161;28;20478;-81
2021/03/31 08:11:57;;;;;;;25.20;19.77;;;16.30;1.00;;;;;;5059801;28;20480;-83
2021/03/31 08:17:26;;;;;;;26.83;18.57;;;16.70;1.00;;;;;;5041497;28;20466;-82
2021/03/31 08:19:55;;;;;;;22.50;17.77;;;16.70;1.00;;;;;;5049539;28;20451;-82
2021/03/31 08:22:33;;;;;;;24.23;17.20;;;16.90;1.00;;;;;;5046055;28;20567;-81
2021/03/31 08:25:02;;;;;;;21.20;17.97;;;17.00;1.00;;;;;;5057389;28;20448;-81
2021/03/31 08:27:28;;;;;;;21.00;17.87;;;17.10;1.00;;;;;;5045781;28;20433;-82
2021/03/31 08:29:56;;;;;;;29.43;18.30;;;17.30;1.00;;;;;;5050665;28;21439;-82
2021/03/31 08:32:25;;;;;;;26.00;17.43;;;17.50;1.00;;;;;;5052292;28;20455;-82
2021/03/31 08:34:52;;;;;;;23.50;18.50;;;17.60;1.00;;;;;;5053391;28;20450;-83
2021/03/31 08:37:25;;;;;;;21.57;16.77;;;17.80;1.00;;;;;;5052376;28;20469;-83
2021/03/31 08:39:52;;;;;;;20.70;16.50;;;18.00;1.00;;;;;;5049726;28;20463;-82
2021/03/31 08:42:20;;;;;;;18.60;15.43;;;18.30;1.00;;;;;;5054728;28;20491;-84
2021/03/31 08:44:51;;;;;;;23.37;16.60;;;18.40;1.00;;;;;;5058115;28;20467;-85
2021/03/31 08:47:20;;;;;;;24.33;15.73;;;18.50;1.00;;;;;;5068165;28;20411;-85
2021/03/31 08:49:48;;;;;;;20.60;16.23;;;18.70;1.00;;;;;;5049282;28;20444;-83
2021/03/31 08:52:16;;;;;;;30.73;19.13;;;18.90;1.00;;;;;;5047703;28;20459;-85
2021/03/31 08:54:45;;;;;;;24.33;18.00;;;19.10;1.00;;;;;;5055843;28;20523;-84
2021/03/31 08:57:15;;;;;;;23.30;16.73;;;19.20;1.00;;;;;;5051706;28;20477;-84
2021/03/31 08:59:44;;;;;;;22.07;17.00;;;19.40;1.00;;;;;;5051879;28;20460;-84
2021/03/31 09:02:11;;;;;;;22.87;16.57;;;19.50;1.00;;;;;;5050102;28;20496;-83
2021/03/31 09:04:38;;;;;;;20.13;15.63;;;19.50;1.00;;;;;;5050162;28;20428;-83
2021/03/31 09:07:11;;;;;;;20.87;17.40;;;19.70;1.00;;;;;;5051284;28;21192;-82
2021/03/31 09:09:39;;;;;;;20.83;15.70;;;19.80;1.00;;;;;;5040733;28;21735;-83
2021/03/31 09:12:08;;;;;;;20.07;15.70;;;20.00;1.00;;;;;;5059259;28;20525;-83
2021/03/31 09:14:37;;;;;;;26.27;16.10;;;20.10;1.00;;;;;;5054764;28;21098;-82
2021/03/31 09:17:06;;;;;;;26.17;18.60;;;20.20;1.00;;;;;;5051797;28;20448;-82
2021/03/31 09:19:35;;;;;;;19.70;13.83;;;20.40;1.00;;;;;;5066658;28;20457;-83
2021/03/31 09:22:06;;;;;;;19.17;14.40;;;20.60;1.00;;;;;;5054014;28;20511;-84
2021/03/31 09:24:32;;;;;;;19.00;14.57;;;21.10;1.00;;;;;;5054470;28;20449;-83
2021/03/31 09:27:04;;;;;;;22.67;16.57;;;22.10;1.00;;;;;;5052661;28;20866;-82
2021/03/31 09:29:31;;;;;;;17.73;13.53;;;23.20;1.00;;;;;;5059140;28;20524;-82
2021/03/31 09:32:01;;;;;;;18.90;14.70;;;24.20;1.00;;;;;;5052445;28;20497;-84
2021/03/31 09:34:27;;;;;;;22.53;16.30;;;25.20;1.00;;;;;;5051793;28;20458;-82
2021/03/31 09:37:05;;;;;;;20.43;16.30;;;26.40;1.00;;;;;;5064361;28;20461;-81
2021/03/31 09:39:47;;;;;;;22.73;16.60;;;27.70;1.00;;;;;;5060515;28;20508;-84
2021/03/31 09:42:23;;;;;;;22.40;17.80;;;28.20;1.00;;;;;;5073021;28;20456;-84
2021/03/31 09:44:51;;;;;;;19.43;16.70;;;29.10;1.00;;;;;;5053958;28;20656;-81
2021/03/31 09:47:24;;;;;;;21.00;17.60;;;29.70;1.00;;;;;;5061171;28;20509;-81
2021/03/31 09:49:52;;;;;;;20.13;18.03;;;30.20;1.00;;;;;;5054010;28;20438;-79
2021/03/31 09:52:23;;;;;;;20.80;18.57;;;30.60;1.00;;;;;;5042000;28;21975;-83
2021/03/31 09:54:50;;;;;;;21.53;17.93;;;30.60;1.00;;;;;;5042375;28;20454;-80
2021/03/31 09:57:17;;;;;;;20.93;17.93;;;30.90;1.00;;;;;;5049590;28;20465;-80
2021/03/31 09:59:44;;;;;;;24.13;19.17;;;30.60;1.00;;;;;;5047971;28;20528;-82
2021/03/31 10:02:11;;;;;;;21.10;17.73;;;30.60;1.00;;;;;;5046274;28;20398;-78
2021/03/31 10:04:40;;;;;;;22.53;17.60;;;31.40;1.00;;;;;;5045996;28;20455;-81
2021/03/31 10:07:13;;;;;;;20.77;17.47;;;32.30;1.00;;;;;;5035896;28;20845;-79
2021/03/31 10:09:42;;;;;;;22.73;18.37;;;32.00;1.00;;;;;;5034121;28;20574;-82
2021/03/31 10:12:10;;;;;;;21.67;17.77;;;31.60;1.00;;;;;;5035287;28;20441;-80
2021/03/31 10:14:46;;;;;;;20.47;17.77;;;32.00;1.00;;;;;;5047433;28;20599;-81
2021/03/31 10:17:14;;;;;;;21.00;18.77;;;32.20;1.00;;;;;;5040778;28;21194;-81
2021/03/31 10:19:41;;;;;;;20.00;17.90;;;33.10;1.00;;;;;;5043330;28;20453;-81
2021/03/31 10:22:08;;;;;;;21.87;18.00;;;33.20;1.00;;;;;;5036011;28;20444;-79
2021/03/31 10:24:39;;;;;;;20.80;16.70;;;33.60;1.00;;;;;;5039830;28;20866;-81
2021/03/31 10:27:06;;;;;;;20.70;17.57;;;33.80;1.00;;;;;;5033675;28;20462;-80
2021/03/31 10:29:33;;;;;;;20.93;18.20;;;33.60;1.00;;;;;;5035633;28;20460;-81
2021/03/31 10:32:00;;;;;;;25.33;17.27;;;33.00;1.00;;;;;;5036102;28;20478;-80
2021/03/31 10:34:38;;;;;;;22.07;17.20;;;33.10;1.00;;;;;;5033106;28;20452;-79
2021/03/31 10:37:10;;;;;;;24.17;17.93;;;33.50;1.00;;;;;;5036369;28;21293;-77
2021/03/31 10:48:40;;;;;;;19.30;16.13;;;34.70;1.00;;;;;;5029648;28;20544;-78
2021/03/31 10:51:13;;;;;;;20.80;15.97;;;35.00;1.00;;;;;;5035346;28;20522;-80
2021/03/31 10:53:44;;;;;;;15.33;13.83;;;35.30;1.00;;;;;;5034446;28;20494;-79
2021/03/31 10:56:10;;;;;;;20.30;14.50;;;35.30;1.00;;;;;;5035734;28;20449;-79
2021/03/31 10:58:37;;;;;;;16.33;14.57;;;35.40;1.00;;;;;;5030634;28;21397;-78
2021/03/31 11:01:04;;;;;;;16.33;14.43;;;35.40;1.00;;;;;;5037739;28;20463;-80
2021/03/31 11:03:30;;;;;;;16.87;15.13;;;35.90;1.00;;;;;;5041152;28;20437;-79
2021/03/31 11:05:56;;;;;;;15.87;14.10;;;35.40;1.00;;;;;;5045139;28;20872;-81
2021/03/31 11:08:23;;;;;;;19.63;14.70;;;35.30;1.00;;;;;;5058624;28;20441;-81
2021/03/31 11:10:50;;;;;;;16.67;14.90;;;36.10;1.00;;;;;;5062353;28;20494;-79
2021/03/31 11:13:17;;;;;;;20.07;14.80;;;36.60;1.00;;;;;;5060027;28;20503;-78
2021/03/31 11:15:43;;;;;;;15.93;13.87;;;36.90;1.00;;;;;;5063194;28;20425;-78
2021/03/31 11:18:15;;;;;;;18.10;14.50;;;37.30;1.00;;;;;;5064941;28;20416;-79
2021/03/31 11:26:23;;;;;;;20.10;14.87;;;37.30;1.00;;;;;;5070070;28;20435;-78
2021/03/31 11:28:49;;;;;;;16.70;14.50;;;38.10;1.00;;;;;;5070604;28;20393;-79
2021/03/31 11:31:15;;;;;;;19.13;14.70;;;38.40;1.00;;;;;;5072295;28;20483;-79
2021/03/31 11:33:42;;;;;;;20.30;15.03;;;37.90;1.00;;;;;;5064376;28;20395;-81
2021/03/31 11:36:08;;;;;;;17.57;15.80;;;37.70;1.00;;;;;;5066762;28;20451;-78
2021/03/31 11:38:35;;;;;;;18.47;15.30;;;38.00;1.00;;;;;;5066023;28;20469;-77
2021/03/31 11:41:02;;;;;;;16.67;14.97;;;37.10;1.00;;;;;;5068731;27;20541;-79
2021/03/31 11:43:29;;;;;;;22.30;20.13;;;36.20;1.00;;;;;;5068103;28;20438;-82
2021/03/31 11:45:55;;;;;;;15.37;12.40;;;36.30;1.00;;;;;;5062254;28;20425;-82
2021/03/31 11:48:24;;;;;;;15.10;13.50;;;37.10;1.00;;;;;;5063133;27;20481;-85
2021/03/31 11:50:50;;;;;;;15.90;13.97;;;38.00;1.00;;;;;;5060470;28;20421;-79
2021/03/31 11:53:17;;;;;;;16.83;14.00;;;38.50;1.00;;;;;;5057389;28;20444;-79
2021/03/31 11:55:43;;;;;;;17.93;15.00;;;38.30;1.00;;;;;;5045946;28;20474;-80
2021/03/31 11:58:10;;;;;;;19.10;14.43;;;38.30;1.00;;;;;;5042392;28;20864;-80
2021/03/31 12:00:37;;;;;;;16.47;13.43;;;38.70;1.00;;;;;;5031840;28;20999;-80
2021/03/31 12:03:04;;;;;;;20.67;14.53;;;39.00;1.00;;;;;;5042242;28;20456;-80
2021/03/31 12:05:30;;;;;;;15.33;12.97;;;37.90;1.00;;;;;;5039405;28;20440;-79
2021/03/31 12:07:57;;;;;;;16.60;13.10;;;37.10;1.00;;;;;;5035525;28;20445;-80
2021/03/31 12:10:23;;;;;;;15.70;12.80;;;36.80;1.00;;;;;;5039857;28;20557;-80
2021/03/31 12:12:49;;;;;;;18.17;14.47;;;36.10;1.00;;;;;;5040152;28;20491;-81
2021/03/31 12:15:17;;;;;;;14.77;13.00;;;36.50;1.00;;;;;;5039071;28;20431;-81
2021/03/31 12:17:44;;;;;;;14.50;12.60;;;37.60;1.00;;;;;;5044295;28;20462;-79
2021/03/31 12:20:13;;;;;;;15.53;12.87;;;38.60;1.00;;;;;;5048782;28;20447;-81
2021/03/31 12:22:40;;;;;;;18.50;12.90;;;38.00;1.00;;;;;;5046635;28;20416;-80
2021/03/31 12:25:07;;;;;;;19.30;12.10;;;38.20;1.00;;;;;;5050240;28;20444;-81
2021/03/31 12:27:34;;;;;;;15.10;13.00;;;38.00;1.00;;;;;;5052364;28;20547;-78
2021/03/31 12:30:01;;;;;;;13.77;12.37;;;38.20;1.00;;;;;;5048576;28;20491;-79
2021/03/31 12:32:28;;;;;;;13.77;12.37;;;38.50;1.00;;;;;;5051489;28;20816;-79
2021/03/31 12:34:54;;;;;;;14.33;11.73;;;38.50;1.00;;;;;;5038807;28;20448;-80
2021/03/31 12:37:22;;;;;;;14.40;11.50;;;38.70;1.00;;;;;;5041628;28;20434;-80
2021/03/31 12:39:49;;;;;;;16.17;12.17;;;39.00;1.00;;;;;;5030007;28;21477;-79
2021/03/31 12:42:15;;;;;;;12.80;11.50;;;38.80;1.00;;;;;;5043225;28;20495;-80
2021/03/31 12:44:41;;;;;;;13.20;11.80;;;39.30;1.00;;;;;;5052298;28;20501;-80
2021/03/31 12:47:07;;;;;;;14.60;12.90;;;38.90;1.00;;;;;;5038294;28;20429;-78
2021/03/31 12:49:34;;;;;;;14.30;12.80;;;38.70;1.00;;;;;;5038172;28;20464;-79
2021/03/31 12:52:05;;;;;;;16.33;12.50;;;39.00;1.00;;;;;;5037369;28;20505;-79
2021/03/31 12:54:34;;;;;;;16.23;11.47;;;39.20;1.00;;;;;;5045462;28;20975;-80
2021/03/31 12:57:02;;;;;;;18.07;12.80;;;38.90;1.00;;;;;;5041482;28;21466;-79
2021/03/31 12:59:28;;;;;;;11.57;10.10;;;38.40;1.00;;;;;;5033711;28;20464;-79
2021/03/31 13:01:55;;;;;;;12.50;11.20;;;38.70;1.00;;;;;;5037527;28;21000;-80
2021/03/31 13:04:21;;;;;;;13.70;12.30;;;38.70;1.00;;;;;;5039040;28;20516;-80
2021/03/31 13:06:48;;;;;;;13.80;12.37;;;39.10;1.00;;;;;;5035896;28;20475;-79